Briefing drone pour Varennes-vauzelles

Rechercher une autre localisation

Conditions de vol :


Nous sommes le : Samedi 16 octobre 2021
Il est 11:39 UTC (13:39 LT)

Lever de soleil : 05:40 UTC (07:40 LT)
Coucher de soleil : 17:25 UTC (19:25 LT)

Météo

L'essentiel des conditions de vol

VIGILANCE MÉTÉO FRANCE - Nièvre (58)
Pas de vigilances particulieres
CARTES DES FRONTS
METAR de LFQG
LFQG 161130Z AUTO VRB01KT CAVOK 16/09 Q1021

Date d'émission: 16/10/2021
Heure d'émission: 11:30 UTC
Vent: Variable 1 KT (2 km/h)
Visibilité horizontale: > 10 km
Plafond : Plafond et visibilité OK (CAVOK)
Température: 16 °C
Point de rosée: 9 °C
Humidité: 63%
Pression (QNH): 1021 hPa
Prévision 24h pour Nevers (2 km)
Vent : 122° pour 2 KT (7 km/h)
Temperature Maxi: 5 °C
Temperature Min: 5 °C
Humidité : 95%
Condition : Partiellement nuageux



Warning: count(): Parameter must be an array or an object that implements Countable in /homepages/6/d509196549/htdocs/droneoxygene/briefing.php on line 743
WEBCAM POUR VARENNES-VAUZELLES

Réglementation

Voler en sécurité

CARTES AERONAUTIQUE 1/500.000
CARTES VAC (LFQG)
SUP AIP




Chargement des AIP...
NOTAM (VARENNES-VAUZELLES + Terrain à proximité / FIR )




Chargement des NOTAMS...
CONTACT PREFECTURE 58


Avertissement : Les données mises à disposition sont indicatives. Oxygène Drone ne pourra être tenu responsable de dégâts causés aux biens et aux personnes.